createdAt,value
2019-03-28T00:00:11.576Z,23.75
2019-03-28T00:02:43.054Z,23.27
2019-03-28T00:05:12.838Z,23.65
2019-03-28T00:07:42.737Z,24.10
2019-03-28T00:10:13.593Z,24.27
2019-03-28T00:12:43.404Z,23.55
2019-03-28T00:15:13.251Z,23.90
2019-03-28T00:17:43.126Z,22.87
2019-03-28T00:20:16.255Z,23.67
2019-03-28T00:22:55.490Z,23.77
2019-03-28T00:25:28.897Z,23.47
2019-03-28T00:27:58.798Z,23.20
2019-03-28T00:30:28.701Z,23.95
2019-03-28T00:32:58.564Z,23.07
2019-03-28T00:35:29.266Z,23.02
2019-03-28T00:37:59.134Z,23.65
2019-03-28T00:40:28.974Z,23.73
2019-03-28T00:42:58.809Z,23.60
2019-03-28T00:45:29.698Z,23.18
2019-03-28T00:47:59.529Z,24.00
2019-03-28T00:50:29.411Z,23.22
2019-03-28T00:52:59.270Z,23.25
2019-03-28T00:55:29.177Z,24.05
2019-03-28T00:57:59.072Z,24.15
2019-03-28T01:00:28.942Z,23.67
2019-03-28T01:02:58.842Z,23.75
2019-03-28T01:05:31.805Z,23.92
2019-03-28T01:08:01.690Z,24.18
2019-03-28T01:10:32.562Z,23.85
2019-03-28T01:13:02.377Z,24.43
2019-03-28T01:15:50.394Z,24.07
2019-03-28T01:18:21.001Z,24.60
2019-03-28T01:20:51.247Z,24.80
2019-03-28T01:23:22.173Z,24.07
2019-03-28T01:25:53.267Z,24.20
2019-03-28T01:28:23.353Z,25.63
2019-03-28T01:30:54.202Z,24.67
2019-03-28T01:33:24.026Z,24.55
2019-03-28T01:35:53.874Z,25.02
2019-03-28T01:38:23.770Z,23.73
2019-03-28T01:40:53.677Z,23.73
2019-03-28T01:43:23.553Z,24.15
2019-03-28T01:45:56.886Z,23.92
2019-03-28T01:48:26.749Z,23.75
2019-03-28T01:50:56.675Z,24.77
2019-03-28T01:53:26.436Z,24.70
2019-03-28T01:56:01.721Z,25.00
2019-03-28T01:58:31.565Z,24.43
2019-03-28T02:01:02.887Z,24.65
2019-03-28T02:03:33.968Z,24.33
2019-03-28T02:06:03.859Z,25.17
2019-03-28T02:08:33.689Z,25.77
2019-03-28T02:11:03.613Z,25.02
2019-03-28T02:13:34.360Z,24.40
2019-03-28T02:16:06.850Z,24.65
2019-03-28T02:18:36.757Z,25.75
2019-03-28T02:21:09.428Z,25.67
2019-03-28T02:23:38.097Z,26.42
2019-03-28T02:26:07.868Z,26.13
2019-03-28T02:28:37.672Z,25.25
2019-03-28T02:31:07.561Z,26.02
2019-03-28T02:33:37.420Z,26.10
2019-03-28T02:36:07.250Z,26.43
2019-03-28T02:38:37.049Z,26.07
2019-03-28T02:41:06.882Z,25.57
2019-03-28T02:43:36.772Z,25.25
2019-03-28T02:46:07.716Z,26.57
2019-03-28T02:48:37.525Z,27.67
2019-03-28T02:51:07.426Z,26.37
2019-03-28T02:53:39.537Z,27.55
2019-03-28T02:56:09.546Z,27.77
2019-03-28T02:58:39.443Z,27.13
2019-03-28T03:01:09.464Z,27.13
2019-03-28T03:03:39.368Z,28.03
2019-03-28T03:06:11.098Z,27.40
2019-03-28T03:08:40.983Z,27.45
2019-03-28T03:11:10.874Z,26.33
2019-03-28T03:13:40.754Z,27.25
2019-03-28T03:16:10.603Z,27.93
2019-03-28T03:18:40.458Z,26.37
2019-03-28T03:21:10.293Z,27.27
2019-03-28T03:23:40.337Z,26.73
2019-03-28T03:26:10.035Z,28.25
2019-03-28T03:28:39.849Z,27.15
2019-03-28T03:31:09.724Z,26.02
2019-03-28T03:33:39.550Z,26.43
2019-03-28T03:36:27.712Z,27.05
2019-03-28T03:38:57.581Z,27.27
2019-03-28T03:41:27.454Z,27.82
2019-03-28T03:43:57.316Z,27.17
2019-03-28T03:46:27.656Z,27.23
2019-03-28T03:48:57.888Z,26.77
2019-03-28T03:51:27.771Z,26.57
2019-03-28T03:53:57.632Z,26.12
2019-03-28T03:56:27.587Z,27.10
2019-03-28T03:58:58.584Z,27.02
2019-03-28T04:01:28.410Z,26.62
2019-03-28T04:03:58.349Z,27.52
2019-03-28T04:06:30.862Z,26.50
2019-03-28T04:09:00.778Z,26.82
2019-03-28T04:11:31.793Z,26.87
2019-03-28T04:14:02.716Z,26.80
2019-03-28T04:16:32.898Z,26.85
2019-03-28T04:19:02.710Z,25.55
2019-03-28T04:24:31.394Z,26.10
2019-03-28T04:27:01.263Z,25.68
2019-03-28T04:29:31.138Z,26.95
2019-03-28T04:32:01.049Z,26.48
2019-03-28T04:34:30.890Z,25.82
2019-03-28T04:37:00.849Z,26.42
2019-03-28T04:39:30.786Z,26.15
2019-03-28T04:42:00.620Z,26.57
2019-03-28T04:44:30.532Z,26.77
2019-03-28T04:47:01.592Z,26.60
2019-03-28T04:49:31.416Z,27.02
2019-03-28T04:52:01.255Z,25.88
2019-03-28T04:54:31.084Z,26.00
2019-03-28T04:57:03.055Z,25.85
2019-03-28T04:59:32.955Z,26.17
2019-03-28T05:02:03.662Z,26.15
2019-03-28T05:04:34.726Z,27.20
2019-03-28T05:07:04.483Z,25.80
2019-03-28T05:09:34.308Z,27.15
2019-03-28T05:12:04.094Z,26.82
2019-03-28T05:14:33.936Z,27.07
2019-03-28T05:17:03.907Z,27.37
2019-03-28T05:19:33.750Z,27.25
2019-03-28T05:22:03.579Z,26.48
2019-03-28T05:24:51.405Z,27.07
2019-03-28T05:27:23.308Z,24.85
2019-03-28T05:29:53.199Z,26.97
2019-03-28T05:32:23.086Z,27.40
2019-03-28T05:34:53.005Z,25.87
2019-03-28T05:37:22.902Z,25.55
2019-03-28T05:39:52.728Z,26.12
2019-03-28T05:42:22.660Z,26.70
2019-03-28T05:44:52.450Z,26.77
2019-03-28T05:47:22.446Z,24.37
2019-03-28T05:49:52.300Z,24.98
2019-03-28T05:52:23.097Z,25.77
2019-03-28T05:54:52.940Z,27.58
2019-03-28T05:57:22.873Z,26.37
2019-03-28T05:59:52.801Z,25.80
2019-03-28T06:02:22.750Z,26.33
2019-03-28T06:04:52.594Z,26.45
2019-03-28T06:07:22.521Z,27.75
2019-03-28T06:09:52.431Z,26.55
2019-03-28T06:12:22.245Z,27.50
2019-03-28T06:14:52.169Z,26.25
2019-03-28T06:17:21.964Z,25.82
2019-03-28T06:19:51.863Z,26.40
2019-03-28T06:22:22.554Z,24.92
2019-03-28T06:24:52.471Z,25.48
2019-03-28T06:27:23.389Z,30.45
2019-03-28T06:29:53.737Z,26.55
2019-03-28T06:32:23.586Z,27.07
2019-03-28T06:34:53.477Z,26.83
2019-03-28T06:37:23.376Z,25.23
2019-03-28T06:39:53.270Z,24.95
2019-03-28T06:42:23.115Z,28.25
2019-03-28T06:44:52.917Z,26.03
2019-03-28T06:47:23.871Z,28.00
2019-03-28T06:49:53.674Z,25.12
2019-03-28T06:52:23.567Z,27.27
2019-03-28T06:54:53.442Z,25.48
2019-03-28T06:57:23.262Z,26.62
2019-03-28T06:59:53.072Z,28.15
2019-03-28T07:02:22.887Z,27.93
2019-03-28T07:04:52.735Z,26.37
2019-03-28T07:07:22.583Z,26.52
2019-03-28T07:09:53.461Z,29.15
2019-03-28T07:12:23.340Z,26.10
2019-03-28T07:14:53.302Z,26.17
2019-03-28T07:17:24.200Z,26.87
2019-03-28T07:19:54.107Z,28.10
2019-03-28T07:22:23.946Z,27.42
2019-03-28T07:24:53.833Z,28.98
2019-03-28T07:27:23.621Z,27.25
2019-03-28T07:29:53.619Z,27.62
2019-03-28T07:32:23.478Z,28.05
2019-03-28T07:34:53.382Z,25.90
2019-03-28T07:37:23.166Z,28.00
2019-03-28T07:39:53.091Z,27.62
2019-03-28T07:42:22.963Z,27.32
2019-03-28T07:44:52.838Z,27.20
2019-03-28T07:47:22.691Z,28.27
2019-03-28T07:49:52.576Z,29.00
2019-03-28T07:52:22.500Z,26.52
2019-03-28T07:54:52.349Z,28.20
2019-03-28T07:57:22.117Z,28.12
2019-03-28T08:00:03.654Z,27.48
2019-03-28T08:02:23.556Z,28.10
2019-03-28T08:04:53.453Z,29.10
2019-03-28T08:07:23.310Z,27.27
2019-03-28T08:09:53.201Z,26.48
2019-03-28T08:12:23.555Z,27.50
2019-03-28T08:14:54.623Z,25.68
2019-03-28T08:17:28.636Z,27.73
2019-03-28T08:19:58.442Z,27.17
2019-03-28T08:22:29.864Z,27.07
2019-03-28T08:24:59.895Z,27.93
2019-03-28T08:27:47.859Z,26.97
2019-03-28T08:30:20.697Z,29.65
2019-03-28T08:32:50.576Z,27.27
2019-03-28T08:35:20.461Z,25.97
2019-03-28T08:37:50.458Z,26.65
2019-03-28T08:40:34.865Z,25.17
2019-03-28T08:43:05.181Z,24.57
2019-03-28T08:45:36.118Z,26.23
2019-03-28T08:48:06.293Z,25.15
2019-03-28T08:50:36.119Z,25.93
2019-03-28T08:53:06.018Z,25.08
2019-03-28T08:55:35.861Z,26.05
2019-03-28T08:58:05.755Z,25.55
2019-03-28T09:00:51.085Z,24.93
2019-03-28T09:03:07.218Z,23.73
2019-03-28T09:05:37.985Z,24.15
2019-03-28T09:08:07.908Z,23.43
2019-03-28T09:10:37.665Z,23.40
2019-03-28T09:13:07.483Z,23.62
2019-03-28T09:15:43.511Z,23.38
2019-03-28T09:18:08.787Z,23.38
2019-03-28T09:20:38.597Z,21.93
2019-03-28T09:23:09.443Z,22.03
2019-03-28T09:25:40.326Z,22.07
2019-03-28T09:28:10.198Z,20.92
2019-03-28T09:30:48.580Z,21.30
2019-03-28T09:33:13.363Z,21.17
2019-03-28T09:35:43.218Z,20.72
2019-03-28T09:38:13.252Z,20.40
2019-03-28T09:40:43.007Z,19.73
2019-03-28T09:43:12.826Z,19.55
2019-03-28T09:45:42.659Z,19.90
2019-03-28T09:48:12.585Z,19.85
2019-03-28T09:50:42.266Z,19.95
2019-03-28T09:53:12.160Z,19.77
2019-03-28T09:55:41.942Z,19.05
2019-03-28T09:58:11.761Z,19.23
2019-03-28T10:00:41.537Z,18.10
2019-03-28T10:03:11.360Z,19.07
2019-03-28T10:05:41.121Z,18.48
2019-03-28T10:08:11.941Z,19.05
2019-03-28T10:10:41.774Z,18.00
2019-03-28T10:13:12.203Z,18.85
2019-03-28T10:15:43.815Z,18.70
2019-03-28T10:18:14.021Z,18.37
2019-03-28T10:20:43.793Z,19.00
2019-03-28T10:23:13.608Z,18.92
2019-03-28T10:25:43.614Z,17.67
2019-03-28T10:28:13.336Z,18.35
2019-03-28T10:30:44.682Z,18.70
2019-03-28T10:33:14.517Z,18.02
2019-03-28T10:35:45.376Z,17.70
2019-03-28T10:38:16.241Z,17.52
2019-03-28T10:40:46.206Z,17.45
2019-03-28T10:43:16.032Z,16.62
2019-03-28T10:45:45.859Z,16.73
2019-03-28T10:48:19.484Z,16.73
2019-03-28T10:50:50.049Z,16.17
2019-03-28T10:53:19.884Z,16.07
2019-03-28T10:55:51.692Z,14.65
2019-03-28T10:58:21.606Z,14.20
2019-03-28T11:00:54.635Z,15.07
2019-03-28T11:03:22.813Z,14.95
2019-03-28T11:05:52.721Z,14.27
2019-03-28T11:08:40.884Z,14.38
2019-03-28T11:11:10.626Z,13.72
2019-03-28T11:13:40.380Z,14.13
2019-03-28T11:16:10.314Z,13.75
2019-03-28T11:18:40.009Z,14.15
2019-03-28T11:21:09.828Z,13.48
2019-03-28T11:23:39.701Z,12.90
2019-03-28T11:26:09.619Z,12.63
2019-03-28T11:28:39.434Z,12.65
2019-03-28T11:31:10.261Z,12.78
2019-03-28T11:33:40.407Z,13.20
2019-03-28T11:36:10.270Z,12.47
2019-03-28T11:38:40.133Z,12.70
2019-03-28T11:41:12.687Z,12.05
2019-03-28T11:43:48.670Z,12.88
2019-03-28T11:46:18.773Z,12.67
2019-03-28T11:48:50.200Z,11.12
2019-03-28T11:51:20.177Z,12.10
2019-03-28T11:53:50.122Z,10.60
2019-03-28T11:56:19.957Z,11.93
2019-03-28T11:58:50.821Z,11.30
2019-03-28T12:01:20.549Z,11.53
2019-03-28T12:03:50.450Z,11.70
2019-03-28T12:06:22.227Z,11.22
2019-03-28T12:08:52.055Z,11.38
2019-03-28T12:11:21.983Z,11.00
2019-03-28T12:13:51.885Z,10.63
2019-03-28T12:16:21.690Z,10.32
2019-03-28T12:18:51.541Z,10.30
2019-03-28T12:21:21.504Z,10.13
2019-03-28T12:23:51.309Z,9.30
2019-03-28T12:26:21.208Z,9.75
2019-03-28T12:28:51.058Z,10.00
2019-03-28T12:31:21.978Z,9.63
2019-03-28T12:33:51.809Z,9.57
2019-03-28T12:36:21.837Z,9.58
2019-03-28T12:38:51.623Z,9.63
2019-03-28T12:41:21.492Z,9.53
2019-03-28T12:43:51.293Z,10.77
2019-03-28T12:46:21.236Z,9.53
2019-03-28T12:48:51.068Z,9.85
2019-03-28T12:51:22.245Z,10.13
2019-03-28T12:53:53.147Z,10.15
2019-03-28T12:56:26.188Z,10.70
2019-03-28T12:58:54.562Z,10.30
2019-03-28T13:01:24.600Z,10.20
2019-03-28T13:04:12.665Z,10.23
2019-03-28T13:06:43.606Z,10.65
2019-03-28T13:09:13.509Z,9.98
2019-03-28T13:11:43.504Z,9.98
2019-03-28T13:14:13.389Z,9.80
2019-03-28T13:16:43.305Z,10.23
2019-03-28T13:19:13.211Z,9.80
2019-03-28T13:21:43.030Z,9.45
2019-03-28T13:24:12.827Z,10.00
2019-03-28T13:26:43.732Z,9.68
2019-03-28T13:29:13.607Z,10.10
2019-03-28T13:31:43.505Z,10.43
2019-03-28T13:34:13.315Z,10.60
2019-03-28T13:36:43.177Z,11.10
2019-03-28T13:39:13.157Z,10.77
2019-03-28T13:41:44.428Z,10.80
2019-03-28T13:44:14.779Z,11.00
2019-03-28T13:46:44.642Z,11.00
2019-03-28T13:49:14.470Z,11.03
2019-03-28T13:51:44.340Z,10.82
2019-03-28T13:54:14.239Z,11.10
2019-03-28T13:56:44.176Z,10.80
2019-03-28T13:59:14.099Z,10.77
2019-03-28T14:01:44.110Z,11.40
2019-03-28T14:04:14.941Z,10.95
2019-03-28T14:06:44.974Z,10.23
2019-03-28T14:09:14.880Z,9.83
2019-03-28T14:11:44.759Z,9.97
2019-03-28T14:14:14.641Z,9.90
2019-03-28T14:16:44.524Z,9.53
2019-03-28T14:19:14.933Z,9.90
2019-03-28T14:21:44.782Z,9.48
2019-03-28T14:24:14.631Z,10.08
2019-03-28T14:26:44.590Z,9.60
2019-03-28T14:29:14.370Z,10.30
2019-03-28T14:31:44.336Z,10.70
2019-03-28T14:34:14.105Z,9.98
2019-03-28T14:36:44.007Z,10.13
2019-03-28T14:39:13.909Z,10.53
2019-03-28T14:41:46.221Z,10.50
2019-03-28T14:44:15.258Z,10.08
2019-03-28T14:46:45.162Z,9.95
2019-03-28T14:49:14.987Z,10.23
2019-03-28T14:51:44.884Z,9.93
2019-03-28T14:54:14.690Z,9.75
2019-03-28T14:56:45.082Z,9.10
2019-03-28T14:59:15.576Z,9.15
2019-03-28T15:01:45.385Z,9.93
2019-03-28T15:04:15.251Z,9.28
2019-03-28T15:06:45.121Z,9.03
2019-03-28T15:09:14.907Z,9.20
2019-03-28T15:11:44.655Z,8.93
2019-03-28T15:14:14.429Z,8.95
2019-03-28T15:16:44.355Z,8.80
2019-03-28T15:19:14.227Z,9.00
2019-03-28T15:21:44.124Z,8.28
2019-03-28T15:24:16.802Z,8.10
2019-03-28T15:26:46.921Z,8.55
2019-03-28T15:29:17.935Z,8.38
2019-03-28T15:31:47.790Z,8.00
2019-03-28T15:34:17.690Z,8.13
2019-03-28T15:36:47.586Z,8.20
2019-03-28T15:39:17.470Z,8.03
2019-03-28T15:41:47.322Z,7.90
2019-03-28T15:44:17.100Z,7.53
2019-03-28T15:46:46.907Z,7.58
2019-03-28T15:49:16.782Z,7.35
2019-03-28T15:51:46.759Z,7.57
2019-03-28T15:54:16.700Z,6.95
2019-03-28T15:56:48.330Z,6.72
2019-03-28T15:59:19.845Z,7.10
2019-03-28T16:01:50.787Z,6.75
2019-03-28T16:04:20.641Z,6.92
2019-03-28T16:06:51.721Z,6.70
2019-03-28T16:09:22.470Z,6.87
2019-03-28T16:12:01.919Z,6.60
2019-03-28T16:14:23.880Z,7.12
2019-03-28T16:16:55.211Z,6.42
2019-03-28T16:19:25.200Z,6.37
2019-03-28T16:21:55.034Z,6.20
2019-03-28T16:24:24.852Z,6.40
2019-03-28T16:26:54.871Z,6.10
2019-03-28T16:29:24.684Z,6.28
2019-03-28T16:31:56.537Z,6.40
2019-03-28T16:34:26.365Z,6.00
2019-03-28T16:36:56.246Z,6.13
2019-03-28T16:39:26.123Z,5.85
2019-03-28T16:41:55.970Z,5.60
2019-03-28T16:44:25.872Z,5.45
2019-03-28T16:46:55.550Z,5.33
2019-03-28T16:49:25.439Z,5.67
2019-03-28T16:51:55.269Z,5.50
2019-03-28T16:54:25.247Z,5.65
2019-03-28T16:56:55.108Z,5.60
2019-03-28T16:59:31.589Z,5.58
2019-03-28T17:02:01.413Z,5.20
2019-03-28T17:04:31.293Z,4.95
2019-03-28T17:07:01.509Z,5.12
2019-03-28T17:09:32.039Z,5.00
2019-03-28T17:12:01.935Z,5.03
2019-03-28T17:14:31.685Z,5.08
2019-03-28T17:17:01.597Z,5.30
2019-03-28T17:19:31.430Z,4.80
2019-03-28T17:22:01.440Z,5.03
2019-03-28T17:24:31.248Z,5.00
2019-03-28T17:27:01.149Z,5.08
2019-03-28T17:29:31.059Z,4.70
2019-03-28T17:32:00.952Z,4.55
2019-03-28T17:34:35.086Z,4.50
2019-03-28T17:37:03.381Z,4.92
2019-03-28T17:39:33.145Z,5.40
2019-03-28T17:42:06.059Z,5.42
2019-03-28T17:44:34.426Z,5.20
2019-03-28T17:47:06.478Z,5.65
2019-03-28T17:49:36.173Z,6.37
2019-03-28T17:52:06.006Z,6.15
2019-03-28T17:54:35.857Z,5.60
2019-03-28T17:57:05.765Z,5.65
2019-03-28T17:59:35.625Z,5.47
2019-03-28T18:02:05.518Z,5.53
2019-03-28T18:04:47.456Z,5.53
2019-03-28T18:07:07.236Z,6.33
2019-03-28T18:09:37.737Z,6.03
2019-03-28T18:12:07.913Z,5.97
2019-03-28T18:14:37.747Z,5.83
2019-03-28T18:17:11.453Z,5.97
2019-03-28T18:19:41.333Z,5.77
2019-03-28T18:22:11.233Z,6.03
2019-03-28T18:24:41.809Z,7.08
2019-03-28T18:27:11.760Z,6.55
2019-03-28T18:29:41.573Z,6.58
2019-03-28T18:32:11.565Z,6.87
2019-03-28T18:34:41.460Z,6.58
2019-03-28T18:37:11.413Z,6.90
2019-03-28T18:39:41.317Z,7.58
2019-03-28T18:42:11.195Z,6.62
2019-03-28T18:44:41.734Z,7.20
2019-03-28T18:47:11.997Z,6.90
2019-03-28T18:49:41.766Z,7.37
2019-03-28T18:52:11.645Z,6.70
2019-03-28T18:54:41.617Z,7.25
2019-03-28T18:57:13.162Z,6.93
2019-03-28T18:59:43.465Z,7.20
2019-03-28T19:02:13.389Z,7.40
2019-03-28T19:04:43.231Z,6.90
2019-03-28T19:07:16.272Z,7.03
2019-03-28T19:09:46.164Z,7.17
2019-03-28T19:12:16.101Z,7.12
2019-03-28T19:14:46.277Z,7.00
2019-03-28T19:17:16.448Z,7.08
2019-03-28T19:19:46.335Z,7.17
2019-03-28T19:22:16.619Z,7.20
2019-03-28T19:24:46.517Z,7.50
2019-03-28T19:27:16.423Z,7.25
2019-03-28T19:29:46.329Z,6.93
2019-03-28T19:32:16.184Z,7.35
2019-03-28T19:34:45.973Z,7.45
2019-03-28T19:37:15.822Z,6.97
2019-03-28T19:39:45.638Z,6.58
2019-03-28T19:42:15.465Z,6.70
2019-03-28T19:44:46.790Z,7.15
2019-03-28T19:47:16.644Z,6.95
2019-03-28T19:49:46.475Z,6.83
2019-03-28T19:52:16.319Z,7.10
2019-03-28T19:54:46.197Z,7.42
2019-03-28T19:57:16.034Z,7.00
2019-03-28T19:59:47.059Z,7.22
2019-03-28T20:02:16.890Z,7.30
2019-03-28T20:04:46.860Z,7.87
2019-03-28T20:07:22.014Z,7.10
2019-03-28T20:09:49.454Z,7.63
2019-03-28T20:12:19.276Z,7.33
2019-03-28T20:14:49.180Z,7.50
2019-03-28T20:17:19.088Z,8.28
2019-03-28T20:19:49.021Z,7.83
2019-03-28T20:22:18.892Z,7.22
2019-03-28T20:24:48.771Z,7.87
2019-03-28T20:27:18.666Z,7.90
2019-03-28T20:29:48.561Z,8.00
2019-03-28T20:32:18.434Z,7.50
2019-03-28T20:34:49.216Z,7.83
2019-03-28T20:37:19.400Z,7.80
2019-03-28T20:39:49.281Z,7.47
2019-03-28T20:42:19.169Z,7.65
2019-03-28T20:44:49.066Z,7.62
2019-03-28T20:47:19.148Z,7.40
2019-03-28T20:49:49.018Z,7.50
2019-03-28T20:52:19.921Z,7.10
2019-03-28T20:54:49.826Z,6.97
2019-03-28T20:57:19.742Z,7.25
2019-03-28T20:59:49.609Z,7.30
2019-03-28T21:02:19.430Z,6.65
2019-03-28T21:04:49.417Z,6.97
2019-03-28T21:07:21.647Z,7.40
2019-03-28T21:09:51.612Z,6.85
2019-03-28T21:12:21.521Z,6.47
2019-03-28T21:14:51.333Z,6.85
2019-03-28T21:17:25.993Z,6.72
2019-03-28T21:19:55.821Z,6.75
2019-03-28T21:22:25.639Z,6.78
2019-03-28T21:24:56.194Z,6.53
2019-03-28T21:27:26.705Z,6.20
2019-03-28T21:29:56.604Z,6.17
2019-03-28T21:32:26.447Z,6.22
2019-03-28T21:34:56.690Z,5.72
2019-03-28T21:37:27.696Z,5.97
2019-03-28T21:39:57.621Z,5.70
2019-03-28T21:42:27.485Z,5.90
2019-03-28T21:44:58.476Z,5.70
2019-03-28T21:47:35.590Z,5.93
2019-03-28T21:50:07.013Z,5.92
2019-03-28T21:52:40.982Z,5.85
2019-03-28T21:55:12.218Z,5.83
2019-03-28T21:57:42.616Z,5.95
2019-03-28T22:00:12.945Z,7.78
2019-03-28T22:02:44.389Z,7.47
2019-03-28T22:05:24.153Z,7.53
2019-03-28T22:07:54.130Z,13.58
2019-03-28T22:10:23.888Z,14.98
2019-03-28T22:12:55.792Z,19.00
2019-03-28T22:15:28.453Z,18.52
2019-03-28T22:17:58.297Z,21.60
2019-03-28T22:20:29.640Z,43.87
2019-03-28T22:22:59.421Z,29.32
2019-03-28T22:25:32.721Z,27.48
2019-03-28T22:28:02.529Z,27.23
2019-03-28T22:30:32.417Z,26.10
2019-03-28T22:33:03.382Z,25.75
2019-03-28T22:35:37.199Z,24.85
2019-03-28T22:38:09.570Z,24.57
2019-03-28T22:40:43.893Z,24.67
2019-03-28T22:43:13.760Z,23.25
2019-03-28T22:45:49.414Z,23.12
2019-03-28T22:48:58.785Z,22.00
2019-03-28T22:51:31.796Z,20.15
2019-03-28T22:54:04.737Z,20.60
2019-03-28T22:56:34.641Z,18.77
2019-03-28T22:59:07.340Z,18.17
2019-03-28T23:01:37.318Z,17.40
2019-03-28T23:04:07.237Z,17.48
2019-03-28T23:06:44.544Z,17.07
2019-03-28T23:09:23.245Z,15.37
2019-03-28T23:11:53.078Z,15.30
2019-03-28T23:14:26.071Z,14.80
2019-03-28T23:17:08.480Z,13.93
2019-03-28T23:19:44.970Z,14.23
2019-03-28T23:22:17.876Z,13.68
2019-03-28T23:24:49.297Z,14.38
2019-03-28T23:27:25.429Z,13.18
2019-03-28T23:29:56.325Z,13.25
2019-03-28T23:32:31.834Z,12.88
2019-03-28T23:35:08.747Z,13.17
2019-03-28T23:37:42.419Z,13.40
2019-03-28T23:40:12.409Z,12.43
2019-03-28T23:42:42.271Z,12.05
2019-03-28T23:45:12.692Z,12.83
2019-03-28T23:47:51.066Z,12.35
2019-03-28T23:50:20.971Z,12.20
2019-03-28T23:52:53.925Z,12.45
2019-03-28T23:55:23.788Z,12.13
2019-03-28T23:57:53.630Z,12.03
